createdAt,value
2022-08-16T00:00:44.503Z,23.14
2022-08-16T00:03:15.701Z,23.01
2022-08-16T00:05:57.753Z,22.97
2022-08-16T00:08:36.684Z,22.99
2022-08-16T00:11:15.833Z,22.99
2022-08-16T00:13:53.861Z,22.97
2022-08-16T00:17:05.690Z,22.96
2022-08-16T00:19:41.496Z,23.01
2022-08-16T00:22:15.159Z,23.07
2022-08-16T00:24:46.824Z,23.09
2022-08-16T00:27:21.642Z,23.12
2022-08-16T00:30:08.495Z,23.12
2022-08-16T00:32:42.236Z,23.10
2022-08-16T00:35:23.132Z,23.10
2022-08-16T00:37:59.324Z,23.07
2022-08-16T00:40:43.644Z,23.01
2022-08-16T00:43:19.597Z,22.96
2022-08-16T00:46:00.251Z,22.95
2022-08-16T00:48:44.250Z,22.96
2022-08-16T00:51:17.521Z,22.95
2022-08-16T00:53:52.561Z,22.93
2022-08-16T00:56:57.823Z,22.91
2022-08-16T00:59:36.509Z,22.90
2022-08-16T01:02:34.333Z,22.85
2022-08-16T01:05:12.197Z,22.82
2022-08-16T01:07:51.438Z,22.83
2022-08-16T01:10:32.574Z,22.88
2022-08-16T01:13:08.621Z,22.95
2022-08-16T01:15:52.550Z,23.00
2022-08-16T01:18:40.100Z,23.05
2022-08-16T01:21:23.827Z,23.11
2022-08-16T01:24:52.018Z,23.23
2022-08-16T01:27:07.136Z,23.35
2022-08-16T01:29:56.855Z,23.45
2022-08-16T01:32:36.634Z,23.52
2022-08-16T01:35:16.974Z,23.58
2022-08-16T01:37:53.193Z,23.62
2022-08-16T01:40:30.409Z,23.64
2022-08-16T01:43:01.573Z,23.62
2022-08-16T01:45:40.852Z,23.63
2022-08-16T01:48:19.664Z,23.64
2022-08-16T01:51:09.052Z,23.64
2022-08-16T01:53:54.597Z,23.64
2022-08-16T01:56:31.259Z,23.65
2022-08-16T01:59:07.969Z,23.65
2022-08-16T02:01:52.806Z,23.65
2022-08-16T02:04:48.007Z,23.66
2022-08-16T02:07:25.546Z,23.67
2022-08-16T02:09:59.602Z,23.68
2022-08-16T02:12:42.122Z,23.67
2022-08-16T02:15:26.145Z,23.69
2022-08-16T02:18:01.570Z,23.73
2022-08-16T02:20:36.808Z,23.75
2022-08-16T02:23:19.264Z,23.75
2022-08-16T02:25:54.921Z,23.80
2022-08-16T02:28:30.770Z,23.84
2022-08-16T02:31:06.446Z,23.80
2022-08-16T02:33:44.466Z,23.75
2022-08-16T02:36:47.545Z,23.71
2022-08-16T02:39:19.537Z,23.66
2022-08-16T02:41:56.972Z,23.62
2022-08-16T02:44:31.875Z,23.63
2022-08-16T02:47:05.606Z,23.64
2022-08-16T02:50:03.207Z,23.65
2022-08-16T02:52:37.676Z,23.69
2022-08-16T02:55:40.378Z,23.69
2022-08-16T02:58:19.050Z,23.68
2022-08-16T03:00:58.819Z,23.68
2022-08-16T03:04:49.697Z,23.69
2022-08-16T03:06:36.496Z,23.64
2022-08-16T03:09:16.499Z,23.59
2022-08-16T03:11:48.561Z,23.58
2022-08-16T03:14:25.173Z,23.59
2022-08-16T03:16:58.747Z,23.59
2022-08-16T03:19:46.967Z,23.58
2022-08-16T03:22:28.767Z,23.58
2022-08-16T03:25:04.952Z,23.56
2022-08-16T03:27:45.036Z,23.55
2022-08-16T03:30:21.892Z,23.57
2022-08-16T03:32:55.537Z,23.58
2022-08-16T03:35:33.449Z,23.61
2022-08-16T03:38:32.463Z,23.65
2022-08-16T03:41:17.080Z,23.70
2022-08-16T03:44:03.659Z,23.70
2022-08-16T03:46:48.427Z,23.70
2022-08-16T03:49:24.707Z,23.71
2022-08-16T03:52:09.373Z,23.71
2022-08-16T03:54:53.540Z,23.68
2022-08-16T03:57:36.304Z,23.64
2022-08-16T04:00:35.443Z,23.61
2022-08-16T04:03:09.019Z,23.57
2022-08-16T04:05:47.722Z,23.57
2022-08-16T04:08:24.496Z,23.56
2022-08-16T04:10:58.962Z,23.57
2022-08-16T04:14:00.120Z,23.58
2022-08-16T04:16:26.956Z,23.60
2022-08-16T04:19:04.423Z,23.62
2022-08-16T04:21:49.007Z,23.64
2022-08-16T04:24:22.812Z,23.66
2022-08-16T04:27:08.938Z,23.67
2022-08-16T04:29:43.901Z,23.68
2022-08-16T04:32:20.860Z,23.70
2022-08-16T04:34:55.124Z,23.73
2022-08-16T04:37:29.776Z,23.74
2022-08-16T04:40:21.544Z,23.75
2022-08-16T04:42:57.300Z,23.72
2022-08-16T04:45:37.024Z,23.66
2022-08-16T04:48:10.540Z,23.65
2022-08-16T04:50:47.998Z,23.63
2022-08-16T04:53:19.242Z,23.56
2022-08-16T04:55:53.153Z,23.52
2022-08-16T04:58:43.938Z,23.50
2022-08-16T05:01:15.559Z,23.52
2022-08-16T05:04:00.508Z,23.53
2022-08-16T05:06:45.534Z,23.56
2022-08-16T05:09:29.680Z,23.58
2022-08-16T05:12:01.442Z,23.56
2022-08-16T05:14:45.269Z,23.55
2022-08-16T05:17:17.632Z,23.55
2022-08-16T05:19:57.385Z,23.60
2022-08-16T05:22:33.306Z,23.60
2022-08-16T05:25:14.217Z,23.68
2022-08-16T05:27:52.902Z,23.77
2022-08-16T05:30:34.765Z,23.82
2022-08-16T05:33:16.900Z,23.85
2022-08-16T05:35:55.708Z,23.83
2022-08-16T05:38:32.493Z,23.80
2022-08-16T05:41:13.976Z,23.79
2022-08-16T05:43:49.773Z,23.79
2022-08-16T05:46:28.542Z,23.81
2022-08-16T05:49:09.085Z,23.83
2022-08-16T05:51:48.316Z,23.83
2022-08-16T05:54:25.123Z,23.83
2022-08-16T05:57:00.075Z,23.85
2022-08-16T05:59:31.020Z,23.86
2022-08-16T06:02:02.757Z,23.93
2022-08-16T06:04:37.807Z,23.99
2022-08-16T06:07:24.255Z,24.09
2022-08-16T06:09:59.881Z,24.18
2022-08-16T06:12:31.176Z,24.26
2022-08-16T06:15:07.732Z,24.33
2022-08-16T06:17:44.524Z,24.47
2022-08-16T06:20:23.682Z,24.58
2022-08-16T06:22:58.581Z,24.62
2022-08-16T06:25:39.179Z,24.68
2022-08-16T06:28:34.898Z,24.84
2022-08-16T06:31:11.925Z,25.00
2022-08-16T06:33:45.070Z,25.09
2022-08-16T06:36:16.750Z,25.09
2022-08-16T06:38:56.013Z,25.16
2022-08-16T06:41:27.791Z,25.24
2022-08-16T06:43:59.975Z,25.37
2022-08-16T06:46:34.442Z,25.53
2022-08-16T06:49:07.457Z,25.65
2022-08-16T06:51:48.365Z,25.74
2022-08-16T06:54:22.780Z,25.87
2022-08-16T06:56:54.291Z,26.07
2022-08-16T06:59:31.890Z,26.29
2022-08-16T07:02:33.436Z,26.53
2022-08-16T07:05:14.886Z,26.74
2022-08-16T07:07:52.326Z,26.89
2022-08-16T07:10:28.601Z,27.02
2022-08-16T07:13:11.839Z,27.09
2022-08-16T07:15:50.703Z,27.15
2022-08-16T07:18:25.092Z,27.27
2022-08-16T07:21:01.955Z,27.36
2022-08-16T07:23:37.253Z,27.44
2022-08-16T07:26:24.910Z,27.56
2022-08-16T07:29:00.142Z,27.69
2022-08-16T07:31:37.508Z,27.87
2022-08-16T07:34:11.944Z,28.06
2022-08-16T07:36:58.081Z,28.21
2022-08-16T07:39:33.626Z,28.28
2022-08-16T07:42:07.215Z,28.35
2022-08-16T07:44:49.115Z,28.29
2022-08-16T07:47:31.855Z,28.32
2022-08-16T07:50:07.388Z,28.39
2022-08-16T07:52:39.163Z,28.47
2022-08-16T07:55:11.684Z,28.51
2022-08-16T07:58:03.374Z,28.53
2022-08-16T08:00:34.847Z,28.62
2022-08-16T08:03:08.728Z,28.67
2022-08-16T08:05:45.858Z,28.52
2022-08-16T08:08:50.613Z,28.33
2022-08-16T08:11:12.635Z,28.24
2022-08-16T08:13:54.032Z,28.22
2022-08-16T08:16:31.115Z,28.27
2022-08-16T08:19:12.622Z,28.30
2022-08-16T08:22:01.519Z,28.36
2022-08-16T08:24:34.908Z,28.41
2022-08-16T08:27:10.536Z,28.40
2022-08-16T08:30:49.752Z,28.43
2022-08-16T08:32:59.546Z,28.55
2022-08-16T08:35:33.364Z,28.62
2022-08-16T08:38:06.230Z,28.77
2022-08-16T08:40:37.646Z,28.92
2022-08-16T08:43:18.317Z,29.00
2022-08-16T08:45:53.584Z,29.26
2022-08-16T08:48:33.350Z,29.38
2022-08-16T08:51:09.918Z,29.55
2022-08-16T08:53:45.464Z,29.69
2022-08-16T08:56:32.591Z,29.92
2022-08-16T08:59:13.282Z,30.13
2022-08-16T09:01:57.223Z,30.38
2022-08-16T09:04:30.837Z,30.69
2022-08-16T09:07:02.028Z,30.97
2022-08-16T09:09:41.016Z,31.39
2022-08-16T09:12:35.387Z,31.73
2022-08-16T09:15:06.132Z,32.19
2022-08-16T09:17:51.921Z,32.55
2022-08-16T09:20:27.357Z,32.84
2022-08-16T09:23:03.013Z,33.08
2022-08-16T09:25:35.259Z,33.11
2022-08-16T09:28:08.984Z,33.28
2022-08-16T09:30:44.353Z,33.61
2022-08-16T09:33:18.594Z,33.94
2022-08-16T09:35:53.274Z,34.22
2022-08-16T09:38:32.208Z,34.37
2022-08-16T09:41:04.113Z,34.58
2022-08-16T09:44:00.346Z,34.80
2022-08-16T09:46:44.714Z,35.08
2022-08-16T09:49:21.970Z,35.36
2022-08-16T09:51:55.625Z,35.43
2022-08-16T09:54:38.464Z,35.51
2022-08-16T09:57:15.578Z,35.67
2022-08-16T09:59:48.133Z,35.97
2022-08-16T10:02:28.059Z,36.38
2022-08-16T10:04:59.326Z,36.70
2022-08-16T10:07:45.102Z,36.71
2022-08-16T10:10:30.724Z,36.77
2022-08-16T10:13:16.619Z,37.04
2022-08-16T10:15:55.117Z,37.40
2022-08-16T10:19:00.104Z,37.37
2022-08-16T10:21:23.868Z,37.20
2022-08-16T10:23:54.976Z,37.56
2022-08-16T10:27:20.628Z,37.92
2022-08-16T10:29:59.195Z,38.21
2022-08-16T10:32:21.033Z,38.43
2022-08-16T10:34:54.424Z,38.44
2022-08-16T10:37:36.482Z,38.66
2022-08-16T10:40:28.681Z,38.85
2022-08-16T10:43:04.562Z,38.92
2022-08-16T10:45:40.711Z,38.94
2022-08-16T10:48:28.117Z,39.00
2022-08-16T10:50:59.940Z,39.27
2022-08-16T10:53:46.926Z,39.29
2022-08-16T10:56:51.953Z,39.27
2022-08-16T11:05:09.831Z,39.03
2022-08-16T11:07:52.577Z,38.65
2022-08-16T11:13:57.252Z,39.12
2022-08-16T11:17:02.251Z,39.54
2022-08-16T11:19:12.823Z,39.71
2022-08-16T11:25:11.384Z,40.07
2022-08-16T11:27:40.444Z,40.12
2022-08-16T11:30:19.887Z,40.10
2022-08-16T11:33:00.939Z,40.05
2022-08-16T11:38:51.609Z,40.49
2022-08-16T11:41:17.322Z,40.35
2022-08-16T11:43:52.056Z,40.32
2022-08-16T11:46:45.380Z,40.24
2022-08-16T11:49:23.359Z,39.97
2022-08-16T11:51:55.235Z,40.09
2022-08-16T11:54:36.154Z,40.33
2022-08-16T11:57:09.124Z,40.30
2022-08-16T11:59:50.838Z,39.97
2022-08-16T12:02:31.499Z,39.84
2022-08-16T12:05:03.784Z,39.87
2022-08-16T12:07:39.328Z,39.80
2022-08-16T12:10:12.124Z,39.87
2022-08-16T12:12:52.763Z,40.07
2022-08-16T12:15:31.051Z,40.24
2022-08-16T12:18:02.215Z,40.11
2022-08-16T12:20:33.807Z,40.22
2022-08-16T12:23:08.664Z,40.61
2022-08-16T12:25:39.647Z,40.93
2022-08-16T12:28:13.582Z,41.08
2022-08-16T12:30:45.971Z,40.90
2022-08-16T12:33:25.305Z,40.87
2022-08-16T12:36:01.300Z,40.62
2022-08-16T12:38:41.625Z,40.17
2022-08-16T12:41:24.690Z,39.92
2022-08-16T12:44:01.382Z,39.94
2022-08-16T12:46:33.602Z,39.72
2022-08-16T12:49:05.981Z,40.05
2022-08-16T12:51:58.502Z,40.42
2022-08-16T12:54:31.236Z,40.66
2022-08-16T12:57:05.117Z,40.81
2022-08-16T12:59:44.927Z,41.06
2022-08-16T13:02:22.890Z,41.08
2022-08-16T13:05:06.904Z,40.68
2022-08-16T13:07:58.419Z,40.56
2022-08-16T13:10:37.916Z,40.69
2022-08-16T13:13:15.226Z,40.57
2022-08-16T13:15:58.332Z,40.26
2022-08-16T13:18:42.227Z,40.20
2022-08-16T13:21:17.324Z,40.09
2022-08-16T13:23:51.111Z,39.76
2022-08-16T13:26:28.986Z,39.73
2022-08-16T13:29:04.600Z,39.54
2022-08-16T13:31:38.047Z,39.24
2022-08-16T13:34:12.532Z,38.78
2022-08-16T13:36:49.958Z,38.49
2022-08-16T13:39:20.856Z,38.52
2022-08-16T13:41:56.668Z,38.71
2022-08-16T13:44:33.110Z,38.82
2022-08-16T13:47:21.283Z,38.46
2022-08-16T13:49:54.392Z,38.03
2022-08-16T13:52:27.372Z,37.94
2022-08-16T13:55:17.761Z,37.96
2022-08-16T13:58:35.471Z,37.91
2022-08-16T14:00:52.757Z,37.75
2022-08-16T14:03:27.510Z,37.71
2022-08-16T14:06:15.663Z,37.83
2022-08-16T14:08:59.315Z,38.01
2022-08-16T14:11:38.848Z,38.02
2022-08-16T14:14:11.247Z,37.84
2022-08-16T14:16:45.077Z,37.63
2022-08-16T14:19:22.350Z,37.46
2022-08-16T14:21:56.834Z,37.12
2022-08-16T14:24:45.150Z,36.75
2022-08-16T14:27:21.857Z,36.60
2022-08-16T14:29:55.729Z,36.55
2022-08-16T14:32:33.201Z,36.33
2022-08-16T14:35:07.239Z,36.08
2022-08-16T14:37:38.581Z,35.77
2022-08-16T14:40:12.710Z,35.35
2022-08-16T14:42:49.568Z,35.00
2022-08-16T14:45:23.876Z,34.83
2022-08-16T14:48:01.336Z,34.86
2022-08-16T14:50:32.155Z,34.94
2022-08-16T14:53:05.681Z,34.95
2022-08-16T14:55:41.062Z,34.93
2022-08-16T14:58:19.633Z,34.82
2022-08-16T15:00:53.283Z,34.70
2022-08-16T15:03:37.520Z,34.60
2022-08-16T15:06:09.858Z,34.58
2022-08-16T15:08:47.005Z,34.55
2022-08-16T15:11:21.834Z,34.32
2022-08-16T15:13:52.857Z,34.08
2022-08-16T15:16:28.898Z,33.89
2022-08-16T15:19:00.213Z,33.84
2022-08-16T15:21:36.003Z,33.77
2022-08-16T15:24:16.845Z,33.76
2022-08-16T15:26:53.973Z,33.69
2022-08-16T15:29:24.985Z,33.64
2022-08-16T15:32:01.160Z,33.53
2022-08-16T15:34:34.387Z,33.44
2022-08-16T15:37:08.385Z,33.33
2022-08-16T15:39:42.400Z,33.28
2022-08-16T15:42:28.781Z,33.30
2022-08-16T15:45:03.552Z,33.27
2022-08-16T15:47:52.386Z,33.25
2022-08-16T15:50:29.903Z,33.12
2022-08-16T15:53:03.562Z,32.94
2022-08-16T15:55:35.254Z,32.84
2022-08-16T15:58:34.527Z,32.76
2022-08-16T16:00:57.570Z,32.59
2022-08-16T16:03:30.247Z,32.55
2022-08-16T16:06:05.660Z,32.54
2022-08-16T16:08:41.498Z,32.53
2022-08-16T16:11:12.634Z,32.44
2022-08-16T16:13:48.189Z,32.32
2022-08-16T16:16:23.061Z,32.20
2022-08-16T16:18:56.953Z,32.10
2022-08-16T16:21:30.998Z,32.05
2022-08-16T16:24:21.458Z,31.92
2022-08-16T16:26:59.340Z,31.82
2022-08-16T16:29:37.230Z,31.83
2022-08-16T16:32:15.877Z,31.86
2022-08-16T16:34:52.868Z,31.93
2022-08-16T16:37:37.094Z,32.00
2022-08-16T16:40:12.773Z,32.05
2022-08-16T16:42:46.218Z,32.09
2022-08-16T16:45:23.314Z,32.11
2022-08-16T16:47:57.272Z,32.08
2022-08-16T16:50:45.702Z,32.02
2022-08-16T16:53:18.145Z,31.98
2022-08-16T16:56:00.141Z,31.98
2022-08-16T16:58:54.019Z,31.93
2022-08-16T17:01:56.633Z,31.85
2022-08-16T17:04:19.603Z,31.85
2022-08-16T17:06:58.923Z,31.82
2022-08-16T17:09:32.341Z,31.81
2022-08-16T17:12:24.437Z,31.78
2022-08-16T17:15:05.395Z,31.72
2022-08-16T17:18:00.388Z,31.69
2022-08-16T17:20:29.662Z,31.74
2022-08-16T17:23:04.344Z,31.75
2022-08-16T17:25:36.762Z,31.74
2022-08-16T17:31:05.322Z,31.75
2022-08-16T17:33:36.901Z,31.73
2022-08-16T17:36:35.780Z,31.73
2022-08-16T17:39:02.385Z,31.71
2022-08-16T17:39:28.037Z,31.75
2022-08-16T17:41:33.409Z,31.67
2022-08-16T17:44:06.256Z,31.61
2022-08-16T17:46:52.831Z,31.57
2022-08-16T17:49:30.350Z,31.53
2022-08-16T17:52:01.332Z,31.49
2022-08-16T17:54:37.045Z,31.46
2022-08-16T17:57:17.039Z,31.41
2022-08-16T17:59:50.249Z,31.36
2022-08-16T18:02:43.539Z,31.31
2022-08-16T18:05:17.058Z,31.25
2022-08-16T18:07:52.989Z,31.20
2022-08-16T18:10:33.496Z,31.16
2022-08-16T18:13:10.272Z,31.10
2022-08-16T18:15:51.809Z,31.04
2022-08-16T18:18:22.877Z,31.00
2022-08-16T18:21:11.256Z,30.95
2022-08-16T18:23:47.100Z,30.88
2022-08-16T18:26:22.533Z,30.81
2022-08-16T18:28:54.309Z,30.77
2022-08-16T18:31:25.332Z,30.72
2022-08-16T18:33:59.620Z,30.67
2022-08-16T18:36:35.120Z,30.63
2022-08-16T18:39:12.897Z,30.57
2022-08-16T18:41:48.039Z,30.52
2022-08-16T18:44:35.031Z,30.47
2022-08-16T18:47:08.619Z,30.41
2022-08-16T18:49:43.253Z,30.37
2022-08-16T18:52:25.410Z,30.32
2022-08-16T18:55:13.913Z,30.28
2022-08-16T18:57:45.889Z,30.23
2022-08-16T19:03:08.182Z,30.15
2022-08-16T19:05:44.076Z,30.13
2022-08-16T19:08:15.979Z,30.08
2022-08-16T19:10:53.789Z,30.02
2022-08-16T19:13:25.501Z,29.97
2022-08-16T19:15:59.550Z,29.93
2022-08-16T19:18:37.081Z,29.90
2022-08-16T19:21:10.075Z,29.84
2022-08-16T19:23:48.334Z,29.79
2022-08-16T19:26:25.802Z,29.73
2022-08-16T19:29:03.531Z,29.66
2022-08-16T19:31:40.780Z,29.61
2022-08-16T19:34:15.984Z,29.57
2022-08-16T19:36:47.617Z,29.52
2022-08-16T19:39:19.978Z,29.48
2022-08-16T19:41:58.650Z,29.44
2022-08-16T19:44:29.492Z,29.39
2022-08-16T19:47:00.511Z,29.35
2022-08-16T19:49:36.304Z,29.30
2022-08-16T19:52:14.356Z,29.26
2022-08-16T19:54:53.974Z,29.23
2022-08-16T19:57:27.554Z,29.20
2022-08-16T19:59:58.686Z,29.16
2022-08-16T20:02:36.132Z,29.13
2022-08-16T20:05:18.338Z,29.06
2022-08-16T20:08:02.379Z,29.00
2022-08-16T20:10:35.567Z,28.96
2022-08-16T20:13:07.893Z,28.90
2022-08-16T20:15:41.875Z,28.85
2022-08-16T20:18:25.044Z,28.80
2022-08-16T20:20:59.120Z,28.76
2022-08-16T20:23:32.089Z,28.71
2022-08-16T20:26:03.208Z,28.67
2022-08-16T20:28:51.978Z,28.65
2022-08-16T20:31:26.704Z,28.63
2022-08-16T20:33:57.582Z,28.61
2022-08-16T20:36:29.985Z,28.58
2022-08-16T20:39:04.763Z,28.56
2022-08-16T20:41:40.899Z,28.54
2022-08-16T20:44:15.092Z,28.52
2022-08-16T20:46:47.856Z,28.50
2022-08-16T20:49:18.992Z,28.44
2022-08-16T20:51:57.259Z,28.38
2022-08-16T20:54:35.424Z,28.33
2022-08-16T20:57:09.378Z,28.29
2022-08-16T20:59:48.064Z,28.28
2022-08-16T21:02:28.633Z,28.26
2022-08-16T21:05:01.266Z,28.27
2022-08-16T21:07:37.509Z,28.27
2022-08-16T21:10:13.215Z,28.26
2022-08-16T21:12:54.687Z,28.25
2022-08-16T21:15:28.769Z,28.23
2022-08-16T21:18:01.502Z,28.23
2022-08-16T21:20:37.986Z,28.18
2022-08-16T21:23:11.404Z,28.12
2022-08-16T21:25:58.254Z,28.03
2022-08-16T21:28:40.717Z,27.96
2022-08-16T21:31:17.199Z,27.89
2022-08-16T21:33:59.902Z,27.79
2022-08-16T21:36:42.574Z,27.72
2022-08-16T21:39:25.591Z,27.52
2022-08-16T21:41:59.505Z,27.32
2022-08-16T21:44:38.551Z,27.18
2022-08-16T21:47:19.420Z,27.12
2022-08-16T21:50:00.277Z,27.00
2022-08-16T21:52:31.341Z,26.84
2022-08-16T21:55:04.174Z,26.76
2022-08-16T21:57:40.999Z,26.73
2022-08-16T22:00:19.569Z,26.66
2022-08-16T22:02:57.678Z,26.64
2022-08-16T22:05:28.509Z,26.68
2022-08-16T22:08:01.911Z,26.71
2022-08-16T22:11:07.343Z,26.73
2022-08-16T22:13:27.813Z,26.72
2022-08-16T22:15:58.801Z,26.73
2022-08-16T22:18:37.195Z,26.74
2022-08-16T22:21:11.016Z,26.74
2022-08-16T22:23:41.897Z,26.72
2022-08-16T22:26:16.158Z,26.68
2022-08-16T22:28:47.424Z,26.67
2022-08-16T22:31:19.852Z,26.66
2022-08-16T22:33:59.143Z,26.68
2022-08-16T22:36:39.283Z,26.63
2022-08-16T22:39:11.070Z,26.50
2022-08-16T22:41:46.012Z,26.47
2022-08-16T22:44:17.081Z,26.46
2022-08-16T22:46:50.865Z,26.44
2022-08-16T22:49:26.836Z,26.41
2022-08-16T22:52:01.066Z,26.36
2022-08-16T22:54:48.358Z,26.28
2022-08-16T22:57:22.473Z,26.24
2022-08-16T22:59:56.852Z,26.24
2022-08-16T23:02:29.292Z,26.24
2022-08-16T23:05:02.684Z,26.24
2022-08-16T23:07:33.823Z,26.22
2022-08-16T23:10:08.053Z,26.15
2022-08-16T23:12:52.794Z,26.12
2022-08-16T23:15:26.967Z,26.14
2022-08-16T23:18:01.085Z,26.15
2022-08-16T23:20:36.167Z,26.12
2022-08-16T23:23:19.431Z,26.04
2022-08-16T23:25:55.030Z,26.03
2022-08-16T23:28:29.267Z,26.05
2022-08-16T23:31:04.879Z,26.04
2022-08-16T23:33:43.322Z,26.03
2022-08-16T23:36:15.940Z,26.04
2022-08-16T23:38:50.667Z,26.04
2022-08-16T23:41:24.030Z,26.04
2022-08-16T23:43:55.026Z,26.04
2022-08-16T23:46:32.098Z,26.04
2022-08-16T23:49:59.494Z,26.03
2022-08-16T23:51:59.110Z,26.01
2022-08-16T23:54:38.387Z,26.00
2022-08-16T23:57:11.081Z,25.99
2022-08-16T23:59:52.535Z,25.99
